Saltar para o conteúdo principal

Portimão (Praia da Rocha)

ID 6210879 · 37.1167, -8.5295 mapa

Última leitura · 2026-05-09 15:00 (Europe/Lisbon)

Temperatura
18.1 °C
Humidade
82 %
Pressão
Precipitação
0.0 mm
Radiação
Velocidade do vento
19.8 km/h
Direcção do vento
SW · Sudoeste

Histórico de 24 horas

Hora (Europe/Lisbon) Temperatura Humidade Pressão Chuva Vento Direcção
2026-05-09 15:00 18.1 °C 82 % 0.0 mm 19.8 km/h SW
2026-05-09 14:00 17.3 °C 85 % 0.2 mm 18.4 km/h SW
2026-05-09 13:00 17.8 °C 79 % 0.0 mm 22.3 km/h SW
2026-05-09 12:00 17.0 °C 80 % 0.0 mm 18.7 km/h SW
2026-05-09 11:00 16.9 °C 82 % 0.0 mm 19.1 km/h SW
2026-05-09 10:00 16.2 °C 90 % 0.1 mm 19.1 km/h SW
2026-05-09 09:00 15.1 °C 92 % 0.0 mm 13.7 km/h SW
2026-05-09 08:00 15.3 °C 93 % 3.4 mm 13.3 km/h W
2026-05-09 07:00 15.8 °C 89 % 1.8 mm 32.0 km/h S
2026-05-09 06:00 16.0 °C 85 % 0.5 mm 24.8 km/h S
2026-05-09 05:00 16.4 °C 85 % 0.0 mm 27.7 km/h S
2026-05-09 04:00 16.4 °C 89 % 0.0 mm 22.7 km/h S
2026-05-09 03:00 15.4 °C 90 % 0.0 mm 15.1 km/h S
2026-05-09 02:00 15.2 °C 87 % 0.1 mm 17.3 km/h SE
2026-05-09 01:00 15.3 °C 89 % 0.1 mm 20.2 km/h SE
2026-05-09 00:00 15.3 °C 85 % 0.0 mm 22.0 km/h SE
2026-05-08 23:00 15.0 °C 86 % 0.0 mm 24.8 km/h SE
2026-05-08 22:00 13.5 °C 94 % 0.7 mm 10.8 km/h S
2026-05-08 21:00 15.2 °C 90 % 6.1 mm 10.1 km/h W
2026-05-08 20:00 15.7 °C 88 % 0.0 mm 18.7 km/h SE